Time;durP1;ratioP1;P1;durP2;ratioP2;P2;SDS_P1;SDS_P2;PMS_P1;PMS_P2;Temp;Humidity;BMP_temperature;BMP_pressure;BME280_temperature;BME280_humidity;BME280_pressure;Samples;Min_cycle;Max_cycle;Signal;HPM_P1;HPM_P2
2022/01/04 05:01:39;;;;;;;4.13;2.10;;;10.10;99.70;;;;;;5013930;28;20650;-65
2022/01/04 05:04:06;;;;;;;4.07;2.27;;;10.10;99.70;;;;;;5013682;28;20230;-65
2022/01/04 05:06:33;;;;;;;4.33;2.17;;;10.00;99.70;;;;;;5013613;28;20449;-65
2022/01/04 05:08:59;;;;;;;4.83;2.50;;;10.10;99.70;;;;;;5013259;28;20438;-65
2022/01/04 05:11:27;;;;;;;4.27;2.50;;;10.10;99.70;;;;;;5013483;28;20446;-66
2022/01/04 05:13:54;;;;;;;4.37;2.30;;;10.10;99.70;;;;;;5013455;28;21004;-65
2022/01/04 05:16:20;;;;;;;4.23;2.40;;;10.00;99.70;;;;;;5013452;28;20445;-66
2022/01/04 05:18:48;;;;;;;4.33;2.40;;;10.10;99.70;;;;;;5012650;28;20473;-65
2022/01/04 05:21:15;;;;;;;6.50;2.40;;;10.10;99.70;;;;;;5013320;28;20445;-65
2022/01/04 05:23:42;;;;;;;5.17;2.30;;;10.00;99.70;;;;;;5013157;28;20442;-65
2022/01/04 05:26:08;;;;;;;4.57;2.43;;;10.00;99.70;;;;;;5013272;28;20504;-65
2022/01/04 05:28:35;;;;;;;4.30;2.27;;;10.00;99.70;;;;;;5012908;28;20445;-66
2022/01/04 05:31:02;;;;;;;5.40;2.50;;;10.00;99.70;;;;;;5013240;28;20449;-65
2022/01/04 05:33:29;;;;;;;5.67;2.70;;;9.90;99.70;;;;;;5013158;28;20446;-64
2022/01/04 05:35:57;;;;;;;4.43;2.53;;;9.90;99.70;;;;;;5013001;28;21181;-65
2022/01/04 05:38:23;;;;;;;4.33;2.50;;;9.90;99.70;;;;;;5012231;28;20870;-65
2022/01/04 05:40:50;;;;;;;4.03;2.40;;;9.90;99.70;;;;;;5012776;28;20481;-65
2022/01/04 05:43:17;;;;;;;6.87;2.50;;;9.90;99.70;;;;;;5012920;28;20446;-65
2022/01/04 05:45:43;;;;;;;4.50;2.50;;;9.90;99.70;;;;;;5012720;28;20474;-66
2022/01/04 05:48:10;;;;;;;4.73;2.30;;;9.90;99.70;;;;;;5012417;28;20445;-67
2022/01/04 05:50:38;;;;;;;5.10;2.50;;;9.90;99.70;;;;;;5012713;28;20441;-65
2022/01/04 05:53:06;;;;;;;4.47;2.37;;;9.80;99.70;;;;;;5012659;28;20959;-66
2022/01/04 05:55:33;;;;;;;5.20;3.33;;;9.80;99.70;;;;;;5012455;28;20473;-65
2022/01/04 05:58:00;;;;;;;6.03;2.70;;;9.80;99.70;;;;;;5012193;28;20444;-65
2022/01/04 06:00:26;;;;;;;5.10;2.60;;;9.70;99.70;;;;;;5012402;28;20485;-65
2022/01/04 06:02:54;;;;;;;4.53;2.60;;;9.70;99.70;;;;;;5012495;28;20441;-66
2022/01/04 06:05:20;;;;;;;4.77;2.63;;;9.80;99.70;;;;;;5012351;28;20504;-65
2022/01/04 06:07:47;;;;;;;5.10;3.10;;;9.70;99.70;;;;;;5011992;28;20857;-64
2022/01/04 06:10:15;;;;;;;7.27;2.93;;;9.70;99.70;;;;;;5012316;28;20446;-65
2022/01/04 06:15:26;;;;;;;7.40;2.40;;;9.70;99.70;;;;;;5012304;28;21033;-65
2022/01/04 06:17:53;;;;;;;6.97;2.90;;;9.70;99.70;;;;;;5011305;28;20968;-65
2022/01/04 06:20:22;;;;;;;4.67;2.57;;;9.70;99.70;;;;;;5012029;28;20508;-66
2022/01/04 06:22:49;;;;;;;5.30;2.40;;;9.70;99.70;;;;;;5012035;28;20473;-65
2022/01/04 06:25:18;;;;;;;5.27;2.60;;;9.70;99.70;;;;;;5011817;28;20869;-65
2022/01/04 06:27:46;;;;;;;3.70;2.17;;;9.70;99.70;;;;;;5011688;28;21009;-65
2022/01/04 06:30:15;;;;;;;4.07;2.33;;;9.80;99.70;;;;;;5011943;28;20468;-66
2022/01/04 06:32:43;;;;;;;7.50;2.07;;;9.70;99.70;;;;;;5012064;28;20441;-65
2022/01/04 06:35:10;;;;;;;3.57;2.10;;;9.80;99.70;;;;;;5011959;28;20515;-65
2022/01/04 06:37:37;;;;;;;5.00;2.07;;;9.80;99.70;;;;;;5011854;28;20468;-66
2022/01/04 06:40:05;;;;;;;3.53;1.90;;;9.80;99.70;;;;;;5011624;28;20488;-66
2022/01/04 06:42:33;;;;;;;4.30;1.87;;;9.90;99.70;;;;;;5011765;28;20445;-67
2022/01/04 06:44:59;;;;;;;3.83;2.10;;;9.80;99.70;;;;;;5011699;28;20466;-65
2022/01/04 06:47:26;;;;;;;4.27;2.10;;;9.90;99.70;;;;;;5011515;28;20437;-66
2022/01/04 06:49:53;;;;;;;3.73;2.07;;;9.90;99.70;;;;;;5010448;28;20442;-64
2022/01/04 06:52:19;;;;;;;4.10;1.90;;;9.90;99.70;;;;;;5011596;28;20442;-65
2022/01/04 06:54:46;;;;;;;5.50;1.90;;;9.90;99.70;;;;;;5011513;28;20493;-67
2022/01/04 06:57:13;;;;;;;5.10;2.10;;;9.90;99.70;;;;;;5011500;28;20441;-64
2022/01/04 06:59:41;;;;;;;3.57;1.80;;;9.90;99.70;;;;;;5011077;28;21005;-66
2022/01/04 07:02:08;;;;;;;4.40;2.30;;;9.90;99.70;;;;;;5011491;28;20442;-65
2022/01/04 07:04:35;;;;;;;4.07;2.00;;;10.00;99.70;;;;;;5011411;28;20531;-65
2022/01/04 07:07:01;;;;;;;3.57;1.90;;;10.00;99.70;;;;;;5011319;28;20453;-65
2022/01/04 07:09:28;;;;;;;3.73;1.67;;;10.00;99.70;;;;;;5011077;28;20441;-65
2022/01/04 07:11:55;;;;;;;3.30;1.80;;;10.00;99.70;;;;;;5011374;28;20446;-65
2022/01/04 07:14:22;;;;;;;3.57;1.80;;;10.00;99.70;;;;;;5011356;28;20465;-66
2022/01/04 07:16:50;;;;;;;3.30;1.70;;;10.00;99.70;;;;;;5011377;28;20837;-67
2022/01/04 07:19:16;;;;;;;3.27;2.00;;;10.10;99.70;;;;;;5010643;28;20499;-65
2022/01/04 07:21:43;;;;;;;4.13;1.80;;;10.10;99.70;;;;;;5011282;28;20442;-65
2022/01/04 07:24:10;;;;;;;2.90;1.70;;;10.10;99.70;;;;;;5011094;28;20477;-65
2022/01/04 07:26:37;;;;;;;3.40;1.80;;;10.10;99.70;;;;;;5011330;28;20446;-65
2022/01/04 07:29:04;;;;;;;4.30;1.83;;;10.10;99.70;;;;;;5010849;28;20496;-65
2022/01/04 07:31:31;;;;;;;3.90;1.87;;;10.10;99.70;;;;;;5011209;28;20491;-66
2022/01/04 07:33:59;;;;;;;4.13;1.60;;;10.10;99.70;;;;;;5010970;28;20472;-65
2022/01/04 07:36:28;;;;;;;3.30;1.63;;;10.20;99.70;;;;;;5011227;28;20449;-66
2022/01/04 07:38:55;;;;;;;5.33;1.90;;;10.20;99.70;;;;;;5010664;28;20449;-65
2022/01/04 07:41:22;;;;;;;4.33;1.70;;;10.20;99.70;;;;;;5010988;28;20477;-65
2022/01/04 07:43:49;;;;;;;5.60;1.60;;;10.20;99.70;;;;;;5010864;28;20445;-65
2022/01/04 07:46:16;;;;;;;5.60;1.90;;;10.20;99.70;;;;;;5011119;28;20492;-65
2022/01/04 07:48:43;;;;;;;3.77;1.97;;;10.20;99.70;;;;;;5010686;28;20449;-66
2022/01/04 07:51:11;;;;;;;4.53;2.00;;;10.30;99.70;;;;;;5011105;28;20467;-66
2022/01/04 07:53:38;;;;;;;3.60;1.73;;;10.30;99.70;;;;;;5010775;28;20457;-65
2022/01/04 07:56:05;;;;;;;3.13;1.80;;;10.30;99.70;;;;;;5010849;28;20454;-65
2022/01/04 07:58:32;;;;;;;6.10;2.07;;;10.30;99.70;;;;;;5010498;28;20457;-67
2022/01/04 08:00:59;;;;;;;4.60;2.00;;;10.30;99.70;;;;;;5012814;28;20477;-65
2022/01/04 08:03:25;;;;;;;4.80;1.90;;;10.30;99.70;;;;;;5014471;28;20504;-65
2022/01/04 08:05:52;;;;;;;4.63;2.03;;;10.40;99.70;;;;;;5014529;28;20465;-65
2022/01/04 08:08:20;;;;;;;5.73;2.40;;;10.40;99.70;;;;;;5014029;28;20456;-65
2022/01/04 08:10:48;;;;;;;5.87;2.50;;;10.40;99.70;;;;;;5014545;28;20452;-66
2022/01/04 08:13:14;;;;;;;5.77;2.57;;;10.50;99.70;;;;;;5014447;28;20813;-64
2022/01/04 08:15:41;;;;;;;5.37;2.70;;;10.40;99.70;;;;;;5014471;28;20476;-65
2022/01/04 08:18:08;;;;;;;5.37;2.37;;;10.50;99.70;;;;;;5013632;28;20445;-65
2022/01/04 08:20:35;;;;;;;5.77;2.30;;;10.50;99.70;;;;;;5014227;28;20483;-65
2022/01/04 08:23:02;;;;;;;5.13;2.20;;;10.50;99.70;;;;;;5014274;28;20472;-65
2022/01/04 08:25:30;;;;;;;3.43;1.80;;;10.50;99.70;;;;;;5014101;28;20560;-65
2022/01/04 08:27:57;;;;;;;4.00;1.80;;;10.50;99.70;;;;;;5013651;28;20946;-65
2022/01/04 08:30:24;;;;;;;4.03;1.90;;;10.50;99.70;;;;;;5014083;28;20441;-67
2022/01/04 08:32:53;;;;;;;4.20;1.90;;;10.50;99.70;;;;;;5014077;28;20504;-65
2022/01/04 08:35:19;;;;;;;5.03;2.00;;;10.60;99.70;;;;;;5013979;28;20465;-65
2022/01/04 08:37:46;;;;;;;5.20;2.20;;;10.60;99.70;;;;;;5013644;28;20976;-62
2022/01/04 08:40:13;;;;;;;4.03;2.10;;;10.70;99.70;;;;;;5013837;28;20481;-66
2022/01/04 08:42:41;;;;;;;3.23;1.87;;;10.70;99.70;;;;;;5014075;28;20441;-65
2022/01/04 08:45:09;;;;;;;4.00;1.90;;;10.70;99.70;;;;;;5013904;28;20469;-64
2022/01/04 08:47:36;;;;;;;4.47;1.90;;;10.70;99.70;;;;;;5013812;28;20449;-67
2022/01/04 08:50:04;;;;;;;3.00;1.90;;;10.70;99.70;;;;;;5013329;28;20552;-65
2022/01/04 08:52:31;;;;;;;4.87;2.20;;;10.70;99.70;;;;;;5013800;28;20457;-65
2022/01/04 08:54:57;;;;;;;5.00;2.20;;;10.80;99.70;;;;;;5013612;28;20461;-66
2022/01/04 08:57:24;;;;;;;3.83;2.03;;;10.80;99.70;;;;;;5013594;28;20450;-65
2022/01/04 08:59:54;;;;;;;4.10;2.20;;;10.80;99.70;;;;;;5013254;28;20468;-65
2022/01/04 09:02:22;;;;;;;5.43;2.50;;;10.80;99.70;;;;;;5013521;28;20500;-65
2022/01/04 09:04:48;;;;;;;4.93;2.30;;;10.80;99.70;;;;;;5013478;28;20552;-65
2022/01/04 09:07:15;;;;;;;4.73;2.30;;;10.80;99.70;;;;;;5013465;28;20453;-65
2022/01/04 09:09:42;;;;;;;5.77;2.10;;;11.00;99.70;;;;;;5013142;28;20496;-65
2022/01/04 09:12:09;;;;;;;5.13;1.90;;;11.10;99.70;;;;;;5012537;28;20453;-65
2022/01/04 09:14:44;;;;;;;4.43;2.27;;;11.20;99.70;;;;;;5013072;28;21016;-65
2022/01/04 09:19:56;;;;;;;6.10;2.07;;;11.30;99.70;;;;;;5012435;28;20504;-64
2022/01/04 09:22:23;;;;;;;5.20;2.00;;;11.30;99.70;;;;;;5013186;28;20441;-66
2022/01/04 09:24:50;;;;;;;3.47;2.00;;;11.30;99.70;;;;;;5012911;28;20473;-65
2022/01/04 09:27:16;;;;;;;4.40;1.90;;;11.30;99.70;;;;;;5013270;28;20449;-65
2022/01/04 09:29:43;;;;;;;3.50;1.90;;;11.30;99.70;;;;;;5012657;28;20842;-65
2022/01/04 09:32:16;;;;;;;6.03;1.90;;;11.40;99.70;;;;;;5013099;28;20932;-65
2022/01/04 09:34:42;;;;;;;3.90;1.80;;;11.40;99.70;;;;;;5012766;28;20477;-65
2022/01/04 09:37:09;;;;;;;4.33;2.10;;;11.50;99.70;;;;;;5012953;28;20450;-65
2022/01/04 09:39:36;;;;;;;4.30;2.00;;;11.50;99.70;;;;;;5011767;28;20449;-67
2022/01/04 09:42:08;;;;;;;3.40;2.03;;;11.50;99.70;;;;;;5012299;28;20484;-65
2022/01/04 09:44:34;;;;;;;4.03;1.83;;;11.50;99.70;;;;;;5009174;28;20495;-66
2022/01/04 09:47:03;;;;;;;3.20;1.90;;;11.50;99.70;;;;;;4997512;28;20450;-65
2022/01/04 09:49:31;;;;;;;6.00;2.07;;;11.50;99.70;;;;;;4999735;28;20449;-65
2022/01/04 09:51:58;;;;;;;5.17;2.10;;;11.50;99.70;;;;;;5004867;28;20537;-65
2022/01/04 09:54:26;;;;;;;4.83;1.90;;;11.40;99.70;;;;;;5006890;28;20994;-65
2022/01/04 09:56:54;;;;;;;4.40;1.87;;;11.40;99.70;;;;;;5007645;28;20445;-65
2022/01/04 09:59:21;;;;;;;3.90;2.00;;;11.50;99.70;;;;;;5007474;28;20486;-65
2022/01/04 10:01:53;;;;;;;4.17;2.10;;;11.50;99.70;;;;;;5006714;28;20482;-65
2022/01/04 10:04:24;;;;;;;4.47;2.10;;;11.50;99.70;;;;;;5007352;28;20488;-66
2022/01/04 10:07:00;;;;;;;3.50;2.10;;;11.60;99.70;;;;;;4993907;28;20554;-65
2022/01/04 10:09:36;;;;;;;3.90;2.20;;;11.60;99.70;;;;;;5006278;28;20454;-65
2022/01/04 10:12:05;;;;;;;4.90;2.30;;;11.50;99.70;;;;;;5045571;23;20851;-63
2022/01/04 10:14:35;;;;;;;3.43;2.03;;;11.50;99.70;;;;;;4976697;28;20565;-66
2022/01/04 10:17:06;;;;;;;4.30;2.40;;;11.50;99.70;;;;;;4974156;28;20898;-63
2022/01/04 10:19:34;;;;;;;4.67;2.20;;;11.50;99.70;;;;;;4974794;28;20447;-63
2022/01/04 10:22:14;;;;;;;5.50;2.43;;;11.60;99.70;;;;;;4971849;28;20541;-61
2022/01/04 10:24:43;;;;;;;6.50;2.60;;;11.70;99.70;;;;;;4984293;28;20506;-58
2022/01/04 10:27:26;;;;;;;4.17;2.17;;;11.70;99.70;;;;;;4981488;28;20459;-60
2022/01/04 10:30:13;;;;;;;5.07;2.27;;;11.70;99.70;;;;;;4979645;28;20454;-65
2022/01/04 10:32:48;;;;;;;5.23;2.10;;;11.80;99.70;;;;;;4981159;28;20435;-63
2022/01/04 10:35:23;;;;;;;4.90;2.30;;;11.90;99.70;;;;;;4982566;28;20456;-62
2022/01/04 10:37:51;;;;;;;5.27;2.50;;;11.90;99.70;;;;;;4982958;28;20450;-60
2022/01/04 10:40:18;;;;;;;5.20;2.33;;;11.90;99.70;;;;;;4986370;28;20846;-60
2022/01/04 10:42:45;;;;;;;4.10;2.10;;;11.90;99.70;;;;;;4982652;28;20818;-60
2022/01/04 10:45:27;;;;;;;4.33;2.40;;;12.00;99.70;;;;;;4977808;28;20451;-63
2022/01/04 10:47:55;;;;;;;4.10;2.17;;;12.00;99.70;;;;;;4981885;28;20445;-64
2022/01/04 10:50:35;;;;;;;5.27;2.70;;;12.10;99.70;;;;;;4984762;28;20482;-58
2022/01/04 10:53:05;;;;;;;6.80;2.40;;;12.00;99.70;;;;;;4982594;28;20450;-66
2022/01/04 10:55:33;;;;;;;6.00;2.33;;;12.00;99.70;;;;;;4978612;28;20451;-60
2022/01/04 10:58:00;;;;;;;5.00;2.30;;;12.00;99.70;;;;;;4986441;28;20454;-63
2022/01/04 11:00:28;;;;;;;4.37;2.30;;;11.90;99.70;;;;;;4987254;28;21002;-61
2022/01/04 11:02:57;;;;;;;3.83;2.43;;;11.90;99.70;;;;;;4987524;28;20449;-65
2022/01/04 11:05:26;;;;;;;7.27;2.50;;;11.90;99.70;;;;;;4979870;28;20945;-62
2022/01/04 11:08:00;;;;;;;4.23;2.30;;;11.90;99.70;;;;;;4974229;28;20474;-64
2022/01/04 11:10:30;;;;;;;4.93;2.40;;;11.90;99.70;;;;;;4982136;28;20543;-63
2022/01/04 11:12:58;;;;;;;7.17;2.63;;;11.90;99.70;;;;;;5007628;28;20461;-60
2022/01/04 11:15:25;;;;;;;4.70;2.57;;;11.90;99.70;;;;;;4995573;28;20944;-59
2022/01/04 11:17:52;;;;;;;4.80;2.60;;;11.90;99.70;;;;;;4995020;28;20450;-63
2022/01/04 11:20:19;;;;;;;5.37;2.77;;;11.80;99.70;;;;;;5010333;28;20485;-60
2022/01/04 11:22:48;;;;;;;5.37;2.50;;;11.90;99.70;;;;;;5006801;28;20442;-65
2022/01/04 11:25:16;;;;;;;4.20;2.50;;;11.90;99.70;;;;;;5009409;28;20508;-61
2022/01/04 11:27:45;;;;;;;4.90;2.20;;;12.00;99.70;;;;;;5007425;28;20473;-63
2022/01/04 11:30:17;;;;;;;5.00;2.50;;;12.00;99.70;;;;;;5001504;28;20863;-63
2022/01/04 11:32:51;;;;;;;5.70;2.83;;;12.10;99.70;;;;;;5006733;28;20953;-61
2022/01/04 11:35:22;;;;;;;9.27;2.60;;;12.10;99.70;;;;;;5018761;28;20455;-63
2022/01/04 11:37:53;;;;;;;5.13;2.50;;;12.10;99.70;;;;;;4998576;28;20450;-62
2022/01/04 11:40:25;;;;;;;5.83;2.40;;;12.20;99.70;;;;;;5010324;28;20485;-60
2022/01/04 11:42:54;;;;;;;5.20;2.40;;;12.20;99.70;;;;;;5011005;28;20449;-63
2022/01/04 11:45:42;;;;;;;5.50;2.40;;;12.20;99.70;;;;;;5007837;28;20851;-63
2022/01/04 11:48:43;;;;;;;5.47;2.57;;;12.10;99.70;;;;;;5004542;28;20453;-63
2022/01/04 11:51:37;;;;;;;5.50;2.40;;;12.10;99.70;;;;;;4918633;29;20549;-61
2022/01/04 11:54:19;;;;;;;5.60;2.87;;;12.10;99.70;;;;;;4921945;29;20466;-65
2022/01/04 11:56:52;;;;;;;4.47;2.53;;;12.00;99.70;;;;;;4978592;28;20515;-63
2022/01/04 11:59:22;;;;;;;5.83;2.90;;;12.00;99.70;;;;;;5008799;28;20470;-63
2022/01/04 12:01:50;;;;;;;4.60;2.50;;;11.90;99.70;;;;;;5001265;28;20516;-60
2022/01/04 12:04:47;;;;;;;6.10;2.90;;;11.90;99.70;;;;;;5006492;28;20468;-63
2022/01/04 12:07:47;;;;;;;8.90;2.93;;;11.90;99.70;;;;;;5006957;28;20877;-61
2022/01/04 12:10:36;;;;;;;8.60;2.60;;;11.90;99.70;;;;;;5002714;28;20460;-61
2022/01/04 12:13:06;;;;;;;5.57;2.73;;;11.90;99.70;;;;;;4986108;28;20457;-65
2022/01/04 12:15:58;;;;;;;6.97;2.70;;;11.80;99.70;;;;;;4991228;28;20453;-66
2022/01/04 12:19:00;;;;;;;6.27;3.00;;;11.80;99.70;;;;;;4985809;28;20451;-62
2022/01/04 12:21:36;;;;;;;5.30;2.77;;;11.80;99.70;;;;;;4986541;28;21055;-66
2022/01/04 12:24:04;;;;;;;4.90;2.57;;;11.80;99.70;;;;;;4987454;28;20470;-61
2022/01/04 12:26:33;;;;;;;6.17;2.77;;;11.70;99.70;;;;;;4984009;28;20458;-62
2022/01/04 12:29:23;;;;;;;10.13;3.00;;;11.70;99.70;;;;;;4981516;28;21104;-66
2022/01/04 12:31:53;;;;;;;5.40;2.63;;;11.70;99.70;;;;;;4977100;28;20918;-62
2022/01/04 12:34:29;;;;;;;6.87;2.70;;;11.70;99.70;;;;;;4984867;28;20455;-61
2022/01/04 12:36:56;;;;;;;6.00;3.07;;;11.70;99.70;;;;;;4978523;28;20443;-60
2022/01/04 12:39:31;;;;;;;7.03;3.00;;;11.70;99.70;;;;;;4981418;28;20450;-62
2022/01/04 12:41:58;;;;;;;6.10;2.80;;;11.70;99.70;;;;;;4983990;28;20485;-61
2022/01/04 12:44:27;;;;;;;5.63;2.93;;;11.80;99.70;;;;;;4979630;28;20458;-66
2022/01/04 12:46:56;;;;;;;4.80;2.87;;;11.70;99.70;;;;;;4987303;28;20460;-60
2022/01/04 12:49:25;;;;;;;5.50;2.73;;;11.70;99.70;;;;;;4984138;28;20446;-66
2022/01/04 12:51:54;;;;;;;8.67;2.70;;;11.70;99.70;;;;;;4983758;28;20474;-59
2022/01/04 12:54:23;;;;;;;5.43;2.63;;;11.70;99.70;;;;;;4984792;28;20472;-61
2022/01/04 12:56:52;;;;;;;5.77;2.80;;;11.70;99.70;;;;;;4980484;28;20534;-63
2022/01/04 12:59:31;;;;;;;7.57;2.90;;;11.70;99.70;;;;;;4983746;28;20447;-61
2022/01/04 13:02:01;;;;;;;5.13;3.00;;;11.60;99.70;;;;;;4981082;28;21042;-64
2022/01/04 13:04:30;;;;;;;6.73;3.40;;;11.60;99.70;;;;;;4986423;28;20955;-60
2022/01/04 13:06:57;;;;;;;8.57;3.00;;;11.60;99.70;;;;;;4984032;28;20461;-59
2022/01/04 13:09:25;;;;;;;7.07;3.30;;;11.60;99.70;;;;;;4983668;28;20447;-61
2022/01/04 13:11:54;;;;;;;6.60;3.40;;;11.60;99.70;;;;;;4981768;28;20467;-60
2022/01/04 13:14:22;;;;;;;6.57;3.00;;;11.60;99.70;;;;;;4980571;28;20507;-64
2022/01/04 13:16:49;;;;;;;5.87;2.90;;;11.50;99.70;;;;;;4983568;28;20502;-65
2022/01/04 13:19:20;;;;;;;7.83;3.73;;;11.50;99.70;;;;;;4979822;28;20458;-60
2022/01/04 13:21:57;;;;;;;6.63;3.07;;;11.50;99.70;;;;;;4982477;28;21086;-64
2022/01/04 13:24:32;;;;;;;7.30;3.80;;;11.50;99.70;;;;;;4982312;28;20442;-63
2022/01/04 13:27:24;;;;;;;7.30;3.33;;;11.50;99.70;;;;;;4988491;28;20970;-63
2022/01/04 13:29:53;;;;;;;7.07;3.37;;;11.50;99.70;;;;;;4980957;28;20852;-63
2022/01/04 13:32:22;;;;;;;6.67;3.60;;;11.40;99.70;;;;;;4983739;28;21065;-64
2022/01/04 13:34:51;;;;;;;7.13;3.30;;;11.40;99.70;;;;;;4979885;28;20451;-63
2022/01/04 13:37:20;;;;;;;7.97;2.93;;;11.40;99.70;;;;;;4980508;28;20431;-65
2022/01/04 13:39:49;;;;;;;6.57;3.33;;;11.40;99.70;;;;;;4978567;28;20482;-62
2022/01/04 13:42:32;;;;;;;7.27;3.87;;;11.40;99.70;;;;;;4976822;28;20541;-67
2022/01/04 13:45:01;;;;;;;8.17;4.40;;;11.40;99.70;;;;;;4984047;28;20454;-60
2022/01/04 13:47:33;;;;;;;7.00;3.40;;;11.40;99.70;;;;;;4986014;28;20447;-59
2022/01/04 13:50:17;;;;;;;5.30;3.20;;;11.40;99.70;;;;;;4987091;28;20541;-62
2022/01/04 13:53:05;;;;;;;9.03;3.80;;;11.40;99.70;;;;;;4983610;28;20514;-59
2022/01/04 13:56:01;;;;;;;7.57;3.60;;;11.40;99.70;;;;;;4979323;28;20451;-60
2022/01/04 13:58:50;;;;;;;6.93;3.77;;;11.30;99.70;;;;;;4984093;28;20591;-62
2022/01/04 14:01:23;;;;;;;6.67;3.40;;;11.30;99.70;;;;;;4983185;28;20478;-63
2022/01/04 14:03:52;;;;;;;6.20;3.10;;;11.20;99.70;;;;;;4979998;28;20442;-63
2022/01/04 14:06:41;;;;;;;8.00;2.90;;;11.30;99.70;;;;;;4981679;28;20538;-62
2022/01/04 14:09:11;;;;;;;5.90;3.00;;;11.20;99.70;;;;;;4982132;28;20511;-59
2022/01/04 14:11:41;;;;;;;6.20;2.90;;;11.20;99.70;;;;;;4981123;28;20497;-62
2022/01/04 14:14:11;;;;;;;6.57;2.90;;;11.20;99.70;;;;;;4983817;28;20553;-65
2022/01/04 14:16:46;;;;;;;5.87;3.50;;;11.20;99.70;;;;;;4984442;28;20873;-65
2022/01/04 14:19:13;;;;;;;6.27;3.03;;;11.20;99.70;;;;;;4982234;28;20453;-62
2022/01/04 14:21:43;;;;;;;7.33;4.67;;;11.20;99.70;;;;;;4981230;28;20479;-65
2022/01/04 14:24:39;;;;;;;9.30;3.63;;;11.20;99.70;;;;;;4981611;28;20964;-63
2022/01/04 14:27:08;;;;;;;4.60;2.33;;;10.90;99.70;;;;;;4982156;28;20543;-60
2022/01/04 14:29:38;;;;;;;8.13;3.97;;;10.40;99.70;;;;;;4982717;28;20450;-61
2022/01/04 14:32:07;;;;;;;7.87;4.50;;;9.90;99.70;;;;;;4983049;28;20565;-60
2022/01/04 14:34:33;;;;;;;9.87;4.10;;;9.50;99.70;;;;;;4983613;28;20451;-63
2022/01/04 14:37:01;;;;;;;5.70;2.87;;;9.30;99.70;;;;;;4983066;28;20463;-64
2022/01/04 14:39:29;;;;;;;6.10;2.90;;;8.90;99.70;;;;;;4979521;28;20489;-65
2022/01/04 14:41:57;;;;;;;8.33;3.97;;;8.90;99.70;;;;;;4982185;28;20535;-63
2022/01/04 14:44:24;;;;;;;8.30;3.10;;;8.80;99.70;;;;;;4983399;28;20463;-66
2022/01/04 14:46:51;;;;;;;6.37;2.83;;;8.70;99.70;;;;;;4981674;28;20458;-63
2022/01/04 14:49:18;;;;;;;3.83;2.20;;;8.70;99.70;;;;;;4982542;28;21174;-60
2022/01/04 14:51:45;;;;;;;5.10;2.27;;;8.50;99.70;;;;;;4980437;28;20466;-62
2022/01/04 14:54:13;;;;;;;4.43;2.70;;;8.40;99.70;;;;;;4974559;28;20514;-57
2022/01/04 14:56:41;;;;;;;4.53;2.80;;;8.30;99.70;;;;;;4976158;28;21062;-61
2022/01/04 14:59:08;;;;;;;5.30;2.60;;;8.30;99.70;;;;;;4984457;28;20468;-61
2022/01/04 15:01:35;;;;;;;4.37;2.30;;;8.40;99.70;;;;;;4980245;28;20462;-63
2022/01/04 15:04:02;;;;;;;5.00;2.37;;;8.40;99.70;;;;;;4976858;28;20467;-61
2022/01/04 15:06:29;;;;;;;7.90;2.50;;;8.20;99.70;;;;;;4980111;28;20450;-61
2022/01/04 15:08:56;;;;;;;5.10;2.80;;;8.10;99.70;;;;;;4988558;28;20513;-65
2022/01/04 15:11:24;;;;;;;5.10;3.00;;;8.00;99.70;;;;;;4979123;28;21018;-63
2022/01/04 15:13:51;;;;;;;6.83;3.00;;;7.90;99.70;;;;;;4983455;28;20821;-65
2022/01/04 15:16:18;;;;;;;5.60;3.07;;;7.80;99.70;;;;;;4984580;28;20474;-63
2022/01/04 15:18:47;;;;;;;6.30;3.60;;;7.80;99.70;;;;;;4985639;28;20444;-66
2022/01/04 15:21:15;;;;;;;6.03;3.60;;;7.70;99.70;;;;;;4979380;28;20554;-64
2022/01/04 15:23:42;;;;;;;6.40;3.57;;;7.80;99.70;;;;;;4984977;28;21019;-61
2022/01/04 15:26:08;;;;;;;5.43;3.00;;;7.80;99.70;;;;;;4977935;28;20470;-64
2022/01/04 15:28:37;;;;;;;4.43;2.50;;;7.60;99.70;;;;;;4981425;28;20461;-63
2022/01/04 15:31:04;;;;;;;6.87;2.47;;;7.60;99.70;;;;;;4981629;28;20451;-61
2022/01/04 15:33:33;;;;;;;4.70;2.30;;;7.60;99.70;;;;;;4983202;28;20460;-64
2022/01/04 15:36:00;;;;;;;5.70;2.50;;;7.60;99.70;;;;;;4985762;28;21039;-61
2022/01/04 15:38:27;;;;;;;4.63;2.43;;;7.60;99.70;;;;;;4977427;28;20467;-65
2022/01/04 15:40:53;;;;;;;4.27;2.30;;;7.50;99.70;;;;;;4981011;28;20470;-63
2022/01/04 15:43:20;;;;;;;4.37;2.57;;;7.40;99.70;;;;;;4980468;28;20486;-61
2022/01/04 15:45:48;;;;;;;3.73;2.00;;;7.40;99.70;;;;;;4982734;28;20808;-61
2022/01/04 15:48:15;;;;;;;3.13;1.90;;;7.30;99.70;;;;;;4981546;28;20466;-64
2022/01/04 15:50:42;;;;;;;3.07;1.60;;;7.20;99.70;;;;;;4979820;28;20480;-66
2022/01/04 15:53:08;;;;;;;3.63;1.90;;;7.10;99.70;;;;;;4980856;28;20952;-61
2022/01/04 15:55:35;;;;;;;3.10;1.50;;;7.30;99.70;;;;;;4987029;28;20477;-62
2022/01/04 15:58:02;;;;;;;3.60;1.80;;;7.20;99.70;;;;;;4979737;28;20458;-65
2022/01/04 16:00:28;;;;;;;4.10;1.80;;;7.20;99.70;;;;;;4984402;28;20463;-61
2022/01/04 16:03:00;;;;;;;3.50;1.67;;;7.00;99.70;;;;;;4985612;28;20489;-61
2022/01/04 16:05:26;;;;;;;3.47;1.50;;;6.80;99.70;;;;;;4981451;28;20452;-64
2022/01/04 16:07:53;;;;;;;3.43;1.80;;;6.90;99.70;;;;;;4983661;28;20455;-63
2022/01/04 16:10:20;;;;;;;3.63;1.60;;;7.00;99.70;;;;;;4980835;28;20487;-62
2022/01/04 16:12:47;;;;;;;5.70;1.70;;;6.90;99.70;;;;;;4993513;28;20457;-64
2022/01/04 16:15:18;;;;;;;3.53;1.63;;;6.80;99.70;;;;;;4989259;28;20457;-62
2022/01/04 16:17:52;;;;;;;3.63;1.80;;;6.70;99.70;;;;;;4987226;28;20451;-62
2022/01/04 16:23:06;;;;;;;3.80;1.90;;;6.90;99.70;;;;;;4986604;28;20497;-63
2022/01/04 16:25:34;;;;;;;3.23;1.80;;;6.80;99.70;;;;;;4987730;28;20466;-61
2022/01/04 16:28:03;;;;;;;4.07;1.93;;;6.90;99.70;;;;;;4987748;28;20451;-61
2022/01/04 16:30:30;;;;;;;4.00;1.90;;;6.80;99.70;;;;;;4988972;28;20467;-63
2022/01/04 16:32:56;;;;;;;4.27;2.00;;;6.70;99.70;;;;;;4986338;28;20455;-62
2022/01/04 16:35:25;;;;;;;3.40;2.00;;;6.70;99.70;;;;;;4989617;28;21042;-63
2022/01/04 16:37:52;;;;;;;3.30;1.80;;;6.80;99.70;;;;;;4988562;28;20442;-61
2022/01/04 16:40:24;;;;;;;3.50;1.70;;;6.70;99.70;;;;;;4991472;28;20533;-63
2022/01/04 16:42:51;;;;;;;4.20;1.80;;;6.50;99.70;;;;;;4983927;28;20504;-59
2022/01/04 16:45:18;;;;;;;3.70;1.70;;;6.40;99.70;;;;;;4997835;28;20445;-61
2022/01/04 16:47:45;;;;;;;3.80;1.73;;;6.40;99.70;;;;;;4997058;28;20450;-65
2022/01/04 16:50:13;;;;;;;3.47;2.00;;;6.50;99.70;;;;;;4979053;28;20560;-61
2022/01/04 16:52:42;;;;;;;4.13;2.10;;;6.50;99.70;;;;;;4985254;28;20454;-63
2022/01/04 16:55:10;;;;;;;3.77;2.00;;;6.50;99.70;;;;;;4985270;28;20550;-65
2022/01/04 16:57:38;;;;;;;4.13;2.10;;;6.50;99.70;;;;;;4976420;28;20443;-63
2022/01/04 17:00:06;;;;;;;3.97;2.33;;;6.50;99.70;;;;;;4983331;28;20443;-60
2022/01/04 17:02:33;;;;;;;5.30;2.53;;;6.60;99.70;;;;;;4976496;28;20487;-60
2022/01/04 17:05:00;;;;;;;3.70;2.10;;;6.60;99.70;;;;;;4982316;28;20466;-64
2022/01/04 17:07:27;;;;;;;4.37;2.40;;;6.50;99.70;;;;;;4982696;28;20566;-60
2022/01/04 17:09:58;;;;;;;3.70;1.90;;;6.70;99.70;;;;;;4984477;28;20873;-65
2022/01/04 17:17:50;;;;;;;4.17;2.83;;;6.30;99.70;;;;;;5003346;28;20425;-59
2022/01/04 17:20:17;;;;;;;5.80;3.20;;;6.50;99.70;;;;;;5000037;28;20529;-61
2022/01/04 17:22:45;;;;;;;4.90;2.80;;;6.60;99.70;;;;;;5001000;28;20894;-60
2022/01/04 17:25:15;;;;;;;4.50;2.40;;;6.60;99.70;;;;;;4999188;28;20504;-61
2022/01/04 17:27:43;;;;;;;3.90;2.20;;;6.70;99.70;;;;;;5004245;28;20441;-62
2022/01/04 17:30:12;;;;;;;3.33;1.80;;;6.70;99.70;;;;;;5003209;28;20492;-61
2022/01/04 17:32:39;;;;;;;2.73;1.73;;;6.60;99.70;;;;;;5003129;28;20442;-61
2022/01/04 17:35:07;;;;;;;4.57;2.10;;;6.60;99.70;;;;;;5003790;28;20955;-62
2022/01/04 17:37:34;;;;;;;4.90;2.57;;;6.80;99.70;;;;;;5006988;28;20472;-64
2022/01/04 17:40:00;;;;;;;3.77;2.13;;;6.90;99.70;;;;;;5006871;28;20470;-61
2022/01/04 17:42:29;;;;;;;4.83;2.30;;;7.00;99.70;;;;;;5006244;28;20499;-60
2022/01/04 17:44:56;;;;;;;4.57;2.27;;;6.90;99.70;;;;;;5004613;28;20449;-61
2022/01/04 17:47:23;;;;;;;4.00;2.13;;;6.90;99.70;;;;;;5006801;28;20461;-63
2022/01/04 17:49:50;;;;;;;4.47;2.03;;;6.80;99.70;;;;;;5001089;28;20860;-60
2022/01/04 17:52:17;;;;;;;4.47;2.30;;;6.40;99.70;;;;;;5005908;28;20478;-64
2022/01/04 17:54:46;;;;;;;3.83;2.00;;;6.80;99.70;;;;;;5007099;28;20442;-60
2022/01/04 17:57:13;;;;;;;4.43;2.40;;;6.70;99.70;;;;;;4993563;28;20516;-61
2022/01/04 17:59:43;;;;;;;4.30;2.30;;;6.80;99.70;;;;;;5008345;28;20524;-62
2022/01/04 18:02:10;;;;;;;5.33;2.50;;;6.90;99.70;;;;;;5010371;28;20788;-61
2022/01/04 18:04:37;;;;;;;4.63;2.50;;;6.80;99.70;;;;;;5003105;28;20488;-60
2022/01/04 18:07:04;;;;;;;5.60;2.90;;;6.80;99.70;;;;;;5008722;28;20501;-64
2022/01/04 18:09:31;;;;;;;5.17;2.87;;;6.90;99.70;;;;;;5009934;28;20468;-62
2022/01/04 18:11:58;;;;;;;5.73;2.87;;;6.60;99.70;;;;;;5017047;28;20487;-62
2022/01/04 18:14:24;;;;;;;6.80;3.03;;;6.40;99.70;;;;;;4998936;28;20450;-61
2022/01/04 18:16:55;;;;;;;5.90;2.70;;;6.50;99.70;;;;;;4993822;28;20442;-61